sensor_id;sensor_type;location;lat;lon;timestamp;P1;durP1;ratioP1;P2;durP2;ratioP2
15240;SDS011;7723;52.170;9.978;2023-05-21T00:01:55;11.50;;;9.13;;
15240;SDS011;7723;52.170;9.978;2023-05-21T00:04:24;11.30;;;8.02;;
15240;SDS011;7723;52.170;9.978;2023-05-21T00:06:54;10.70;;;8.90;;
15240;SDS011;7723;52.170;9.978;2023-05-21T00:09:21;14.25;;;9.98;;
15240;SDS011;7723;52.170;9.978;2023-05-21T00:11:48;11.90;;;9.07;;
15240;SDS011;7723;52.170;9.978;2023-05-21T00:14:15;13.90;;;10.23;;
15240;SDS011;7723;52.170;9.978;2023-05-21T00:16:42;11.23;;;8.60;;
15240;SDS011;7723;52.170;9.978;2023-05-21T00:19:11;10.90;;;8.82;;
15240;SDS011;7723;52.170;9.978;2023-05-21T00:21:38;10.80;;;8.05;;
15240;SDS011;7723;52.170;9.978;2023-05-21T00:24:06;12.48;;;8.68;;
15240;SDS011;7723;52.170;9.978;2023-05-21T00:26:33;11.70;;;9.30;;
15240;SDS011;7723;52.170;9.978;2023-05-21T00:29:01;13.05;;;8.70;;
15240;SDS011;7723;52.170;9.978;2023-05-21T00:31:28;12.52;;;8.75;;
15240;SDS011;7723;52.170;9.978;2023-05-21T00:33:56;10.98;;;8.48;;
15240;SDS011;7723;52.170;9.978;2023-05-21T00:36:23;13.32;;;9.32;;
15240;SDS011;7723;52.170;9.978;2023-05-21T00:38:50;11.65;;;9.52;;
15240;SDS011;7723;52.170;9.978;2023-05-21T00:41:19;12.50;;;9.10;;
15240;SDS011;7723;52.170;9.978;2023-05-21T00:43:47;10.68;;;8.38;;
15240;SDS011;7723;52.170;9.978;2023-05-21T00:46:15;12.40;;;8.98;;
15240;SDS011;7723;52.170;9.978;2023-05-21T00:48:43;11.82;;;9.15;;
15240;SDS011;7723;52.170;9.978;2023-05-21T00:51:11;11.85;;;8.35;;
15240;SDS011;7723;52.170;9.978;2023-05-21T00:53:39;12.30;;;9.18;;
15240;SDS011;7723;52.170;9.978;2023-05-21T00:56:06;14.85;;;8.90;;
15240;SDS011;7723;52.170;9.978;2023-05-21T00:58:36;12.02;;;9.35;;
15240;SDS011;7723;52.170;9.978;2023-05-21T01:01:05;11.27;;;9.07;;
15240;SDS011;7723;52.170;9.978;2023-05-21T01:03:37;13.82;;;10.50;;
15240;SDS011;7723;52.170;9.978;2023-05-21T01:06:05;10.90;;;9.02;;
15240;SDS011;7723;52.170;9.978;2023-05-21T01:08:34;13.20;;;8.35;;
15240;SDS011;7723;52.170;9.978;2023-05-21T01:11:03;13.68;;;9.48;;
15240;SDS011;7723;52.170;9.978;2023-05-21T01:13:31;13.23;;;9.65;;
15240;SDS011;7723;52.170;9.978;2023-05-21T01:16:03;10.30;;;8.30;;
15240;SDS011;7723;52.170;9.978;2023-05-21T01:18:32;14.27;;;9.98;;
15240;SDS011;7723;52.170;9.978;2023-05-21T01:21:01;14.20;;;10.05;;
15240;SDS011;7723;52.170;9.978;2023-05-21T01:23:32;13.38;;;9.00;;
15240;SDS011;7723;52.170;9.978;2023-05-21T01:26:00;13.27;;;9.40;;
15240;SDS011;7723;52.170;9.978;2023-05-21T01:28:27;19.38;;;9.00;;
15240;SDS011;7723;52.170;9.978;2023-05-21T01:30:54;11.63;;;9.25;;
15240;SDS011;7723;52.170;9.978;2023-05-21T01:33:27;12.32;;;8.95;;
15240;SDS011;7723;52.170;9.978;2023-05-21T01:36:01;12.50;;;8.70;;
15240;SDS011;7723;52.170;9.978;2023-05-21T01:38:36;15.93;;;9.95;;
15240;SDS011;7723;52.170;9.978;2023-05-21T01:41:09;16.23;;;11.00;;
15240;SDS011;7723;52.170;9.978;2023-05-21T01:43:42;13.77;;;10.27;;
15240;SDS011;7723;52.170;9.978;2023-05-21T01:46:11;15.35;;;10.13;;
15240;SDS011;7723;52.170;9.978;2023-05-21T01:48:43;12.60;;;9.50;;
15240;SDS011;7723;52.170;9.978;2023-05-21T01:51:10;13.05;;;9.98;;
15240;SDS011;7723;52.170;9.978;2023-05-21T01:53:39;13.77;;;9.73;;
15240;SDS011;7723;52.170;9.978;2023-05-21T01:56:07;13.68;;;9.73;;
15240;SDS011;7723;52.170;9.978;2023-05-21T01:58:35;13.73;;;9.60;;
15240;SDS011;7723;52.170;9.978;2023-05-21T02:01:02;12.50;;;9.93;;
15240;SDS011;7723;52.170;9.978;2023-05-21T02:03:29;13.15;;;10.25;;
15240;SDS011;7723;52.170;9.978;2023-05-21T02:05:57;13.52;;;9.48;;
15240;SDS011;7723;52.170;9.978;2023-05-21T02:08:24;14.48;;;10.32;;
15240;SDS011;7723;52.170;9.978;2023-05-21T02:10:53;12.82;;;9.48;;
15240;SDS011;7723;52.170;9.978;2023-05-21T02:13:20;14.18;;;9.70;;
15240;SDS011;7723;52.170;9.978;2023-05-21T02:15:49;13.88;;;10.50;;
15240;SDS011;7723;52.170;9.978;2023-05-21T02:18:18;13.00;;;10.00;;
15240;SDS011;7723;52.170;9.978;2023-05-21T02:20:45;15.30;;;10.43;;
15240;SDS011;7723;52.170;9.978;2023-05-21T02:23:12;14.50;;;10.02;;
15240;SDS011;7723;52.170;9.978;2023-05-21T02:25:40;12.48;;;10.15;;
15240;SDS011;7723;52.170;9.978;2023-05-21T02:28:08;14.57;;;9.55;;
15240;SDS011;7723;52.170;9.978;2023-05-21T02:30:36;14.45;;;10.05;;
15240;SDS011;7723;52.170;9.978;2023-05-21T02:33:04;12.90;;;10.25;;
15240;SDS011;7723;52.170;9.978;2023-05-21T02:35:33;13.40;;;9.55;;
15240;SDS011;7723;52.170;9.978;2023-05-21T02:38:00;14.32;;;9.35;;
15240;SDS011;7723;52.170;9.978;2023-05-21T02:40:27;14.30;;;10.23;;
15240;SDS011;7723;52.170;9.978;2023-05-21T02:42:54;12.18;;;9.82;;
15240;SDS011;7723;52.170;9.978;2023-05-21T02:45:23;15.13;;;9.73;;
15240;SDS011;7723;52.170;9.978;2023-05-21T02:47:50;13.18;;;9.23;;
15240;SDS011;7723;52.170;9.978;2023-05-21T02:50:17;13.30;;;9.32;;
15240;SDS011;7723;52.170;9.978;2023-05-21T02:52:46;13.45;;;10.40;;
15240;SDS011;7723;52.170;9.978;2023-05-21T02:55:13;15.25;;;9.65;;
15240;SDS011;7723;52.170;9.978;2023-05-21T02:57:40;13.65;;;9.75;;
15240;SDS011;7723;52.170;9.978;2023-05-21T03:00:08;12.77;;;9.90;;
15240;SDS011;7723;52.170;9.978;2023-05-21T03:02:37;16.80;;;10.63;;
15240;SDS011;7723;52.170;9.978;2023-05-21T03:05:05;13.95;;;9.73;;
15240;SDS011;7723;52.170;9.978;2023-05-21T03:07:33;13.13;;;9.27;;
15240;SDS011;7723;52.170;9.978;2023-05-21T03:10:00;15.50;;;10.63;;
15240;SDS011;7723;52.170;9.978;2023-05-21T03:12:27;12.18;;;9.25;;
15240;SDS011;7723;52.170;9.978;2023-05-21T03:14:54;12.57;;;9.50;;
15240;SDS011;7723;52.170;9.978;2023-05-21T03:17:21;14.52;;;9.93;;
15240;SDS011;7723;52.170;9.978;2023-05-21T03:19:49;13.30;;;9.95;;
15240;SDS011;7723;52.170;9.978;2023-05-21T03:22:18;13.27;;;9.68;;
15240;SDS011;7723;52.170;9.978;2023-05-21T03:24:45;14.95;;;9.88;;
15240;SDS011;7723;52.170;9.978;2023-05-21T03:27:12;13.00;;;9.43;;
15240;SDS011;7723;52.170;9.978;2023-05-21T03:29:39;13.57;;;9.32;;
15240;SDS011;7723;52.170;9.978;2023-05-21T03:32:07;13.10;;;9.25;;
15240;SDS011;7723;52.170;9.978;2023-05-21T03:34:34;13.13;;;9.68;;
15240;SDS011;7723;52.170;9.978;2023-05-21T03:37:03;14.38;;;9.88;;
15240;SDS011;7723;52.170;9.978;2023-05-21T03:39:30;14.27;;;9.93;;
15240;SDS011;7723;52.170;9.978;2023-05-21T03:41:57;13.73;;;10.13;;
15240;SDS011;7723;52.170;9.978;2023-05-21T03:44:24;12.48;;;9.25;;
15240;SDS011;7723;52.170;9.978;2023-05-21T03:46:52;14.48;;;9.48;;
15240;SDS011;7723;52.170;9.978;2023-05-21T03:49:19;13.88;;;8.80;;
15240;SDS011;7723;52.170;9.978;2023-05-21T03:51:46;11.93;;;8.70;;
15240;SDS011;7723;52.170;9.978;2023-05-21T03:54:14;12.20;;;8.88;;
15240;SDS011;7723;52.170;9.978;2023-05-21T03:56:41;13.73;;;9.30;;
15240;SDS011;7723;52.170;9.978;2023-05-21T03:59:08;12.85;;;9.05;;
15240;SDS011;7723;52.170;9.978;2023-05-21T04:01:35;11.13;;;8.55;;
15240;SDS011;7723;52.170;9.978;2023-05-21T04:04:03;11.55;;;8.07;;
15240;SDS011;7723;52.170;9.978;2023-05-21T04:06:30;11.68;;;8.52;;
15240;SDS011;7723;52.170;9.978;2023-05-21T04:08:57;10.98;;;8.00;;
15240;SDS011;7723;52.170;9.978;2023-05-21T04:11:25;15.73;;;8.10;;
15240;SDS011;7723;52.170;9.978;2023-05-21T04:13:52;8.52;;;7.28;;
15240;SDS011;7723;52.170;9.978;2023-05-21T04:16:19;11.60;;;8.30;;
15240;SDS011;7723;52.170;9.978;2023-05-21T04:18:48;9.95;;;6.63;;
15240;SDS011;7723;52.170;9.978;2023-05-21T04:21:16;8.45;;;7.03;;
15240;SDS011;7723;52.170;9.978;2023-05-21T04:23:43;7.88;;;6.60;;
15240;SDS011;7723;52.170;9.978;2023-05-21T04:26:10;7.80;;;6.38;;
15240;SDS011;7723;52.170;9.978;2023-05-21T04:28:41;8.75;;;6.80;;
15240;SDS011;7723;52.170;9.978;2023-05-21T04:31:09;8.00;;;6.53;;
15240;SDS011;7723;52.170;9.978;2023-05-21T04:33:37;7.75;;;5.85;;
15240;SDS011;7723;52.170;9.978;2023-05-21T04:36:06;8.27;;;5.90;;
15240;SDS011;7723;52.170;9.978;2023-05-21T04:38:35;7.57;;;6.00;;
15240;SDS011;7723;52.170;9.978;2023-05-21T04:41:03;7.72;;;5.97;;
15240;SDS011;7723;52.170;9.978;2023-05-21T04:43:31;8.25;;;5.43;;
15240;SDS011;7723;52.170;9.978;2023-05-21T04:45:59;8.10;;;5.75;;
15240;SDS011;7723;52.170;9.978;2023-05-21T04:48:26;7.13;;;5.20;;
15240;SDS011;7723;52.170;9.978;2023-05-21T04:50:54;5.35;;;4.57;;
15240;SDS011;7723;52.170;9.978;2023-05-21T04:53:21;8.48;;;6.45;;
15240;SDS011;7723;52.170;9.978;2023-05-21T04:55:50;7.40;;;5.28;;
15240;SDS011;7723;52.170;9.978;2023-05-21T04:58:17;6.53;;;5.57;;
15240;SDS011;7723;52.170;9.978;2023-05-21T05:00:44;6.22;;;4.97;;
15240;SDS011;7723;52.170;9.978;2023-05-21T05:03:12;7.07;;;6.20;;
15240;SDS011;7723;52.170;9.978;2023-05-21T05:05:40;8.77;;;6.55;;
15240;SDS011;7723;52.170;9.978;2023-05-21T05:08:07;7.55;;;5.82;;
15240;SDS011;7723;52.170;9.978;2023-05-21T05:10:34;6.80;;;5.80;;
15240;SDS011;7723;52.170;9.978;2023-05-21T05:13:01;7.22;;;5.22;;
15240;SDS011;7723;52.170;9.978;2023-05-21T05:15:28;8.35;;;5.85;;
15240;SDS011;7723;52.170;9.978;2023-05-21T05:17:55;7.30;;;5.57;;
15240;SDS011;7723;52.170;9.978;2023-05-21T05:20:24;9.68;;;5.78;;
15240;SDS011;7723;52.170;9.978;2023-05-21T05:22:51;7.70;;;5.63;;
15240;SDS011;7723;52.170;9.978;2023-05-21T05:25:18;9.20;;;5.93;;
15240;SDS011;7723;52.170;9.978;2023-05-21T05:27:45;6.25;;;5.47;;
15240;SDS011;7723;52.170;9.978;2023-05-21T05:30:12;8.60;;;6.35;;
15240;SDS011;7723;52.170;9.978;2023-05-21T05:32:39;6.45;;;5.78;;
15240;SDS011;7723;52.170;9.978;2023-05-21T05:35:07;7.28;;;5.47;;
15240;SDS011;7723;52.170;9.978;2023-05-21T05:37:36;8.30;;;6.13;;
15240;SDS011;7723;52.170;9.978;2023-05-21T05:40:03;8.57;;;6.07;;
15240;SDS011;7723;52.170;9.978;2023-05-21T05:42:32;8.13;;;6.78;;
15240;SDS011;7723;52.170;9.978;2023-05-21T05:44:59;7.85;;;6.30;;
15240;SDS011;7723;52.170;9.978;2023-05-21T05:47:26;8.68;;;6.43;;
15240;SDS011;7723;52.170;9.978;2023-05-21T05:49:54;8.25;;;6.70;;
15240;SDS011;7723;52.170;9.978;2023-05-21T05:52:22;10.70;;;6.70;;
15240;SDS011;7723;52.170;9.978;2023-05-21T05:54:50;9.10;;;6.60;;
15240;SDS011;7723;52.170;9.978;2023-05-21T05:57:18;8.57;;;6.82;;
15240;SDS011;7723;52.170;9.978;2023-05-21T05:59:46;7.65;;;6.28;;
15240;SDS011;7723;52.170;9.978;2023-05-21T06:02:13;15.52;;;7.32;;
15240;SDS011;7723;52.170;9.978;2023-05-21T06:04:40;8.00;;;6.68;;
15240;SDS011;7723;52.170;9.978;2023-05-21T06:07:08;8.90;;;7.35;;
15240;SDS011;7723;52.170;9.978;2023-05-21T06:09:35;9.90;;;7.10;;
15240;SDS011;7723;52.170;9.978;2023-05-21T06:12:04;10.15;;;7.80;;
15240;SDS011;7723;52.170;9.978;2023-05-21T06:14:32;11.00;;;7.45;;
15240;SDS011;7723;52.170;9.978;2023-05-21T06:16:59;12.98;;;7.88;;
15240;SDS011;7723;52.170;9.978;2023-05-21T06:19:26;9.25;;;7.45;;
15240;SDS011;7723;52.170;9.978;2023-05-21T06:21:53;9.93;;;8.20;;
15240;SDS011;7723;52.170;9.978;2023-05-21T06:24:20;10.82;;;7.50;;
15240;SDS011;7723;52.170;9.978;2023-05-21T06:26:47;10.13;;;7.85;;
15240;SDS011;7723;52.170;9.978;2023-05-21T06:29:16;12.65;;;8.77;;
15240;SDS011;7723;52.170;9.978;2023-05-21T06:31:43;10.25;;;8.20;;
15240;SDS011;7723;52.170;9.978;2023-05-21T06:34:10;10.50;;;8.35;;
15240;SDS011;7723;52.170;9.978;2023-05-21T06:36:37;9.27;;;7.78;;
15240;SDS011;7723;52.170;9.978;2023-05-21T06:39:04;12.27;;;8.30;;
15240;SDS011;7723;52.170;9.978;2023-05-21T06:41:31;10.68;;;8.60;;
15240;SDS011;7723;52.170;9.978;2023-05-21T06:43:58;9.85;;;8.05;;
15240;SDS011;7723;52.170;9.978;2023-05-21T06:46:27;11.10;;;8.85;;
15240;SDS011;7723;52.170;9.978;2023-05-21T06:48:54;11.10;;;8.48;;
15240;SDS011;7723;52.170;9.978;2023-05-21T06:51:21;10.25;;;8.27;;
15240;SDS011;7723;52.170;9.978;2023-05-21T06:53:48;12.00;;;9.32;;
15240;SDS011;7723;52.170;9.978;2023-05-21T06:56:16;12.50;;;9.90;;
15240;SDS011;7723;52.170;9.978;2023-05-21T06:58:43;13.20;;;9.82;;
15240;SDS011;7723;52.170;9.978;2023-05-21T07:01:10;10.57;;;9.40;;
15240;SDS011;7723;52.170;9.978;2023-05-21T07:03:38;12.52;;;10.52;;
15240;SDS011;7723;52.170;9.978;2023-05-21T07:06:06;14.77;;;11.77;;
15240;SDS011;7723;52.170;9.978;2023-05-21T07:08:33;13.82;;;10.07;;
15240;SDS011;7723;52.170;9.978;2023-05-21T07:11:00;12.60;;;10.05;;
15240;SDS011;7723;52.170;9.978;2023-05-21T07:13:30;12.00;;;9.82;;
15240;SDS011;7723;52.170;9.978;2023-05-21T07:15:57;11.65;;;9.93;;
15240;SDS011;7723;52.170;9.978;2023-05-21T07:18:24;13.90;;;11.00;;
15240;SDS011;7723;52.170;9.978;2023-05-21T07:20:53;14.05;;;9.93;;
15240;SDS011;7723;52.170;9.978;2023-05-21T07:23:21;13.60;;;11.38;;
15240;SDS011;7723;52.170;9.978;2023-05-21T07:25:48;16.05;;;11.25;;
15240;SDS011;7723;52.170;9.978;2023-05-21T07:28:15;11.75;;;10.00;;
15240;SDS011;7723;52.170;9.978;2023-05-21T07:30:42;14.07;;;11.73;;
15240;SDS011;7723;52.170;9.978;2023-05-21T07:33:10;16.65;;;11.98;;
15240;SDS011;7723;52.170;9.978;2023-05-21T07:35:37;14.57;;;11.75;;
15240;SDS011;7723;52.170;9.978;2023-05-21T07:38:06;17.80;;;12.98;;
15240;SDS011;7723;52.170;9.978;2023-05-21T07:40:33;16.23;;;12.50;;
15240;SDS011;7723;52.170;9.978;2023-05-21T07:43:00;15.68;;;12.35;;
15240;SDS011;7723;52.170;9.978;2023-05-21T07:45:27;14.77;;;12.63;;
15240;SDS011;7723;52.170;9.978;2023-05-21T07:47:54;17.02;;;13.52;;
15240;SDS011;7723;52.170;9.978;2023-05-21T07:50:21;15.23;;;12.68;;
15240;SDS011;7723;52.170;9.978;2023-05-21T07:52:49;14.85;;;12.60;;
15240;SDS011;7723;52.170;9.978;2023-05-21T07:55:17;15.43;;;13.05;;
15240;SDS011;7723;52.170;9.978;2023-05-21T07:57:45;13.85;;;11.77;;
15240;SDS011;7723;52.170;9.978;2023-05-21T08:00:12;15.88;;;12.52;;
15240;SDS011;7723;52.170;9.978;2023-05-21T08:02:40;16.80;;;12.88;;
15240;SDS011;7723;52.170;9.978;2023-05-21T08:05:08;14.95;;;12.30;;
15240;SDS011;7723;52.170;9.978;2023-05-21T08:07:35;16.38;;;13.35;;
15240;SDS011;7723;52.170;9.978;2023-05-21T08:10:03;15.50;;;12.65;;
15240;SDS011;7723;52.170;9.978;2023-05-21T08:12:33;15.32;;;12.27;;
15240;SDS011;7723;52.170;9.978;2023-05-21T08:15:00;16.42;;;12.35;;
15240;SDS011;7723;52.170;9.978;2023-05-21T08:17:27;16.40;;;13.30;;
15240;SDS011;7723;52.170;9.978;2023-05-21T08:19:54;15.45;;;12.82;;
15240;SDS011;7723;52.170;9.978;2023-05-21T08:22:21;15.55;;;12.02;;
15240;SDS011;7723;52.170;9.978;2023-05-21T08:24:48;18.73;;;12.65;;
15240;SDS011;7723;52.170;9.978;2023-05-21T08:27:15;15.73;;;12.65;;
15240;SDS011;7723;52.170;9.978;2023-05-21T08:29:43;18.70;;;13.90;;
15240;SDS011;7723;52.170;9.978;2023-05-21T08:32:11;17.10;;;12.38;;
15240;SDS011;7723;52.170;9.978;2023-05-21T08:34:38;17.08;;;14.15;;
15240;SDS011;7723;52.170;9.978;2023-05-21T08:37:05;17.90;;;13.50;;
15240;SDS011;7723;52.170;9.978;2023-05-21T08:39:32;15.55;;;13.95;;
15240;SDS011;7723;52.170;9.978;2023-05-21T08:42:01;17.67;;;14.90;;
15240;SDS011;7723;52.170;9.978;2023-05-21T08:44:35;15.45;;;13.80;;
15240;SDS011;7723;52.170;9.978;2023-05-21T08:47:12;18.23;;;13.77;;
15240;SDS011;7723;52.170;9.978;2023-05-21T08:49:44;18.13;;;13.77;;
15240;SDS011;7723;52.170;9.978;2023-05-21T08:52:13;18.13;;;14.95;;
15240;SDS011;7723;52.170;9.978;2023-05-21T08:54:40;17.90;;;14.88;;
15240;SDS011;7723;52.170;9.978;2023-05-21T08:57:09;17.00;;;13.80;;
15240;SDS011;7723;52.170;9.978;2023-05-21T08:59:39;17.70;;;14.00;;
15240;SDS011;7723;52.170;9.978;2023-05-21T09:02:08;18.75;;;15.15;;
15240;SDS011;7723;52.170;9.978;2023-05-21T09:04:39;18.13;;;15.07;;
15240;SDS011;7723;52.170;9.978;2023-05-21T09:07:07;19.77;;;15.63;;
15240;SDS011;7723;52.170;9.978;2023-05-21T09:09:38;18.67;;;15.38;;
15240;SDS011;7723;52.170;9.978;2023-05-21T09:12:09;18.73;;;15.05;;
15240;SDS011;7723;52.170;9.978;2023-05-21T09:14:36;22.55;;;17.05;;
15240;SDS011;7723;52.170;9.978;2023-05-21T09:17:04;22.60;;;16.30;;
15240;SDS011;7723;52.170;9.978;2023-05-21T09:19:33;22.55;;;16.52;;
15240;SDS011;7723;52.170;9.978;2023-05-21T09:22:00;20.80;;;15.48;;
15240;SDS011;7723;52.170;9.978;2023-05-21T09:24:29;19.70;;;14.88;;
15240;SDS011;7723;52.170;9.978;2023-05-21T09:26:57;23.38;;;16.42;;
15240;SDS011;7723;52.170;9.978;2023-05-21T09:29:25;20.33;;;16.02;;
15240;SDS011;7723;52.170;9.978;2023-05-21T09:31:52;19.17;;;15.57;;
15240;SDS011;7723;52.170;9.978;2023-05-21T09:34:19;18.50;;;14.77;;
15240;SDS011;7723;52.170;9.978;2023-05-21T09:36:51;18.52;;;16.33;;
15240;SDS011;7723;52.170;9.978;2023-05-21T09:39:28;19.17;;;15.73;;
15240;SDS011;7723;52.170;9.978;2023-05-21T09:41:55;19.92;;;15.20;;
15240;SDS011;7723;52.170;9.978;2023-05-21T09:44:22;20.63;;;15.77;;
15240;SDS011;7723;52.170;9.978;2023-05-21T09:46:49;18.42;;;15.32;;
15240;SDS011;7723;52.170;9.978;2023-05-21T09:49:22;18.92;;;15.23;;
15240;SDS011;7723;52.170;9.978;2023-05-21T09:51:54;22.50;;;16.23;;
15240;SDS011;7723;52.170;9.978;2023-05-21T09:54:22;18.90;;;15.05;;
15240;SDS011;7723;52.170;9.978;2023-05-21T09:56:50;19.58;;;15.20;;
15240;SDS011;7723;52.170;9.978;2023-05-21T09:59:17;19.55;;;15.25;;
15240;SDS011;7723;52.170;9.978;2023-05-21T10:01:45;19.67;;;14.88;;
15240;SDS011;7723;52.170;9.978;2023-05-21T10:04:15;19.73;;;15.38;;
15240;SDS011;7723;52.170;9.978;2023-05-21T10:06:43;16.98;;;14.77;;
15240;SDS011;7723;52.170;9.978;2023-05-21T10:09:14;18.70;;;13.68;;
15240;SDS011;7723;52.170;9.978;2023-05-21T10:11:44;17.23;;;14.48;;
15240;SDS011;7723;52.170;9.978;2023-05-21T10:14:15;17.95;;;14.68;;
15240;SDS011;7723;52.170;9.978;2023-05-21T10:16:45;18.15;;;14.95;;
15240;SDS011;7723;52.170;9.978;2023-05-21T10:19:14;20.45;;;15.10;;
15240;SDS011;7723;52.170;9.978;2023-05-21T10:21:42;20.48;;;14.88;;
15240;SDS011;7723;52.170;9.978;2023-05-21T10:24:10;15.90;;;14.23;;
15240;SDS011;7723;52.170;9.978;2023-05-21T10:26:40;14.98;;;13.13;;
15240;SDS011;7723;52.170;9.978;2023-05-21T10:29:07;15.68;;;14.05;;
15240;SDS011;7723;52.170;9.978;2023-05-21T10:31:35;21.45;;;14.02;;
15240;SDS011;7723;52.170;9.978;2023-05-21T10:34:04;16.33;;;13.70;;
15240;SDS011;7723;52.170;9.978;2023-05-21T10:36:31;17.65;;;13.98;;
15240;SDS011;7723;52.170;9.978;2023-05-21T10:39:01;16.77;;;14.77;;
15240;SDS011;7723;52.170;9.978;2023-05-21T10:41:30;16.27;;;14.20;;
15240;SDS011;7723;52.170;9.978;2023-05-21T10:44:09;17.90;;;13.63;;
15240;SDS011;7723;52.170;9.978;2023-05-21T10:46:54;21.70;;;14.50;;
15240;SDS011;7723;52.170;9.978;2023-05-21T10:49:40;18.70;;;14.13;;
15240;SDS011;7723;52.170;9.978;2023-05-21T10:52:19;17.77;;;14.40;;
15240;SDS011;7723;52.170;9.978;2023-05-21T10:54:58;15.20;;;13.57;;
15240;SDS011;7723;52.170;9.978;2023-05-21T10:57:37;18.65;;;13.63;;
15240;SDS011;7723;52.170;9.978;2023-05-21T11:00:24;17.65;;;14.05;;
15240;SDS011;7723;52.170;9.978;2023-05-21T11:02:55;16.98;;;14.25;;
15240;SDS011;7723;52.170;9.978;2023-05-21T11:05:38;16.48;;;13.70;;
15240;SDS011;7723;52.170;9.978;2023-05-21T11:08:17;16.15;;;13.23;;
15240;SDS011;7723;52.170;9.978;2023-05-21T11:10:50;17.42;;;13.60;;
15240;SDS011;7723;52.170;9.978;2023-05-21T11:13:19;14.55;;;12.77;;
15240;SDS011;7723;52.170;9.978;2023-05-21T11:16:06;16.15;;;13.65;;
15240;SDS011;7723;52.170;9.978;2023-05-21T11:18:57;16.77;;;13.65;;
15240;SDS011;7723;52.170;9.978;2023-05-21T11:21:27;19.73;;;13.05;;
15240;SDS011;7723;52.170;9.978;2023-05-21T11:23:57;16.73;;;13.35;;
15240;SDS011;7723;52.170;9.978;2023-05-21T11:26:27;15.25;;;13.48;;
15240;SDS011;7723;52.170;9.978;2023-05-21T11:29:05;15.05;;;12.75;;
15240;SDS011;7723;52.170;9.978;2023-05-21T11:31:35;16.00;;;13.00;;
15240;SDS011;7723;52.170;9.978;2023-05-21T11:34:11;15.35;;;12.40;;
15240;SDS011;7723;52.170;9.978;2023-05-21T11:36:38;17.00;;;12.25;;
15240;SDS011;7723;52.170;9.978;2023-05-21T11:39:09;13.52;;;12.05;;
15240;SDS011;7723;52.170;9.978;2023-05-21T11:41:48;15.13;;;13.52;;
15240;SDS011;7723;52.170;9.978;2023-05-21T11:44:16;15.88;;;12.30;;
15240;SDS011;7723;52.170;9.978;2023-05-21T11:46:45;14.73;;;12.98;;
15240;SDS011;7723;52.170;9.978;2023-05-21T11:49:14;14.60;;;12.15;;
15240;SDS011;7723;52.170;9.978;2023-05-21T11:51:41;15.60;;;12.50;;
15240;SDS011;7723;52.170;9.978;2023-05-21T11:54:09;15.98;;;12.40;;
15240;SDS011;7723;52.170;9.978;2023-05-21T11:56:36;14.30;;;11.65;;
15240;SDS011;7723;52.170;9.978;2023-05-21T11:59:12;18.70;;;12.55;;
15240;SDS011;7723;52.170;9.978;2023-05-21T12:01:41;16.23;;;12.07;;
15240;SDS011;7723;52.170;9.978;2023-05-21T12:04:10;14.85;;;12.15;;
15240;SDS011;7723;52.170;9.978;2023-05-21T12:06:37;14.93;;;12.32;;
15240;SDS011;7723;52.170;9.978;2023-05-21T12:09:08;16.17;;;12.35;;
15240;SDS011;7723;52.170;9.978;2023-05-21T12:11:36;14.02;;;12.45;;
15240;SDS011;7723;52.170;9.978;2023-05-21T12:14:06;14.93;;;12.23;;
15240;SDS011;7723;52.170;9.978;2023-05-21T12:16:34;15.80;;;12.35;;
15240;SDS011;7723;52.170;9.978;2023-05-21T12:19:01;15.63;;;12.48;;
15240;SDS011;7723;52.170;9.978;2023-05-21T12:21:30;14.30;;;11.73;;
15240;SDS011;7723;52.170;9.978;2023-05-21T12:23:58;13.20;;;11.55;;
15240;SDS011;7723;52.170;9.978;2023-05-21T12:26:25;14.38;;;11.68;;
15240;SDS011;7723;52.170;9.978;2023-05-21T12:28:52;15.10;;;12.20;;
15240;SDS011;7723;52.170;9.978;2023-05-21T12:31:20;14.13;;;12.50;;
15240;SDS011;7723;52.170;9.978;2023-05-21T12:33:48;14.23;;;11.65;;
15240;SDS011;7723;52.170;9.978;2023-05-21T12:36:20;15.68;;;12.57;;
15240;SDS011;7723;52.170;9.978;2023-05-21T12:38:49;15.38;;;12.00;;
15240;SDS011;7723;52.170;9.978;2023-05-21T12:41:17;13.55;;;11.93;;
15240;SDS011;7723;52.170;9.978;2023-05-21T12:43:45;14.13;;;11.15;;
15240;SDS011;7723;52.170;9.978;2023-05-21T12:46:12;12.27;;;10.65;;
15240;SDS011;7723;52.170;9.978;2023-05-21T12:48:47;14.93;;;12.60;;
15240;SDS011;7723;52.170;9.978;2023-05-21T12:51:15;14.38;;;11.95;;
15240;SDS011;7723;52.170;9.978;2023-05-21T12:53:42;15.07;;;12.13;;
15240;SDS011;7723;52.170;9.978;2023-05-21T12:56:11;15.80;;;12.38;;
15240;SDS011;7723;52.170;9.978;2023-05-21T12:58:40;14.30;;;12.23;;
15240;SDS011;7723;52.170;9.978;2023-05-21T13:01:07;12.13;;;10.82;;
15240;SDS011;7723;52.170;9.978;2023-05-21T13:03:35;14.27;;;11.30;;
15240;SDS011;7723;52.170;9.978;2023-05-21T13:06:04;14.73;;;11.73;;
15240;SDS011;7723;52.170;9.978;2023-05-21T13:08:32;17.95;;;11.93;;
15240;SDS011;7723;52.170;9.978;2023-05-21T13:11:00;13.02;;;11.65;;
15240;SDS011;7723;52.170;9.978;2023-05-21T13:13:29;15.05;;;11.93;;
15240;SDS011;7723;52.170;9.978;2023-05-21T13:15:56;13.38;;;11.93;;
15240;SDS011;7723;52.170;9.978;2023-05-21T13:18:24;14.05;;;10.85;;
15240;SDS011;7723;52.170;9.978;2023-05-21T13:20:51;11.82;;;10.52;;
15240;SDS011;7723;52.170;9.978;2023-05-21T13:23:18;14.23;;;11.70;;
15240;SDS011;7723;52.170;9.978;2023-05-21T13:25:46;13.45;;;10.18;;
15240;SDS011;7723;52.170;9.978;2023-05-21T13:28:15;13.13;;;10.50;;
15240;SDS011;7723;52.170;9.978;2023-05-21T13:30:43;11.57;;;10.25;;
15240;SDS011;7723;52.170;9.978;2023-05-21T13:33:10;15.60;;;11.07;;
15240;SDS011;7723;52.170;9.978;2023-05-21T13:35:37;13.20;;;11.45;;
15240;SDS011;7723;52.170;9.978;2023-05-21T13:38:04;13.35;;;11.35;;
15240;SDS011;7723;52.170;9.978;2023-05-21T13:40:31;15.35;;;11.63;;
15240;SDS011;7723;52.170;9.978;2023-05-21T13:42:59;13.18;;;11.55;;
15240;SDS011;7723;52.170;9.978;2023-05-21T13:45:26;12.93;;;11.50;;
15240;SDS011;7723;52.170;9.978;2023-05-21T13:47:55;13.07;;;10.98;;
15240;SDS011;7723;52.170;9.978;2023-05-21T13:50:23;11.90;;;10.05;;
15240;SDS011;7723;52.170;9.978;2023-05-21T13:52:50;13.20;;;11.45;;
15240;SDS011;7723;52.170;9.978;2023-05-21T13:55:17;13.00;;;11.38;;
15240;SDS011;7723;52.170;9.978;2023-05-21T13:57:44;12.85;;;10.77;;
15240;SDS011;7723;52.170;9.978;2023-05-21T14:00:12;12.48;;;11.18;;
15240;SDS011;7723;52.170;9.978;2023-05-21T14:02:40;13.07;;;11.23;;
15240;SDS011;7723;52.170;9.978;2023-05-21T14:05:09;11.77;;;10.48;;
15240;SDS011;7723;52.170;9.978;2023-05-21T14:07:37;14.05;;;11.55;;
15240;SDS011;7723;52.170;9.978;2023-05-21T14:10:06;13.23;;;10.82;;
15240;SDS011;7723;52.170;9.978;2023-05-21T14:12:34;10.55;;;9.02;;
15240;SDS011;7723;52.170;9.978;2023-05-21T14:15:02;11.90;;;10.35;;
15240;SDS011;7723;52.170;9.978;2023-05-21T14:17:30;11.70;;;9.10;;
15240;SDS011;7723;52.170;9.978;2023-05-21T14:19:57;10.27;;;8.80;;
15240;SDS011;7723;52.170;9.978;2023-05-21T14:22:26;11.30;;;8.80;;
15240;SDS011;7723;52.170;9.978;2023-05-21T14:24:53;12.77;;;9.05;;
15240;SDS011;7723;52.170;9.978;2023-05-21T14:27:20;11.38;;;8.63;;
15240;SDS011;7723;52.170;9.978;2023-05-21T14:29:47;9.93;;;8.23;;
15240;SDS011;7723;52.170;9.978;2023-05-21T14:32:14;9.50;;;8.02;;
15240;SDS011;7723;52.170;9.978;2023-05-21T14:34:43;11.27;;;8.95;;
15240;SDS011;7723;52.170;9.978;2023-05-21T14:37:10;11.38;;;9.38;;
15240;SDS011;7723;52.170;9.978;2023-05-21T14:39:38;11.07;;;9.35;;
15240;SDS011;7723;52.170;9.978;2023-05-21T14:42:05;10.63;;;8.50;;
15240;SDS011;7723;52.170;9.978;2023-05-21T14:44:32;11.60;;;8.70;;
15240;SDS011;7723;52.170;9.978;2023-05-21T14:46:59;11.75;;;9.00;;
15240;SDS011;7723;52.170;9.978;2023-05-21T14:49:26;11.70;;;9.82;;
15240;SDS011;7723;52.170;9.978;2023-05-21T14:51:53;10.18;;;9.07;;